Time;durP1;ratioP1;P1;durP2;ratioP2;P2;SDS_P1;SDS_P2;PMS_P1;PMS_P2;Temp;Humidity;BMP_temperature;BMP_pressure;BME280_temperature;BME280_humidity;BME280_pressure;Samples;Min_cycle;Max_cycle;Signal;HPM_P1;HPM_P2
2023/01/13 00:01:26;;;;;;;2.20;2.00;;;;;;;;;;5037265;28;20057;-96
2023/01/13 00:03:55;;;;;;;3.58;3.33;;;;;;;;;;5037690;28;20103;-96
2023/01/13 00:06:24;;;;;;;1.90;1.60;;;;;;;;;;5037587;28;20050;-96
2023/01/13 00:08:51;;;;;;;1.33;1.23;;;;;;;;;;5037409;28;20123;-96
2023/01/13 00:11:19;;;;;;;1.40;1.25;;;;;;;;;;5037670;28;20053;-96
2023/01/13 00:13:45;;;;;;;2.40;2.30;;;;;;;;;;5037522;28;20103;-96
2023/01/13 00:16:14;;;;;;;2.65;2.45;;;;;;;;;;5037391;28;20108;-96
2023/01/13 00:18:41;;;;;;;2.35;2.15;;;;;;;;;;5036698;28;20049;-95
2023/01/13 00:21:11;;;;;;;3.03;2.38;;;;;;;;;;5037380;28;20092;-96
2023/01/13 00:23:38;;;;;;;1.40;1.25;;;;;;;;;;5037208;28;20103;-95
2023/01/13 00:26:06;;;;;;;3.03;2.78;;;;;;;;;;5037255;28;20692;-95
2023/01/13 00:28:33;;;;;;;1.98;1.88;;;;;;;;;;5036990;28;20049;-96
2023/01/13 00:31:04;;;;;;;1.77;1.67;;;;;;;;;;5036557;28;20061;-94
2023/01/13 00:33:31;;;;;;;1.80;1.70;;;;;;;;;;5036660;28;20056;-95
2023/01/13 00:35:58;;;;;;;3.58;3.47;;;;;;;;;;5036832;28;20045;-94
2023/01/13 00:38:26;;;;;;;1.33;1.30;;;;;;;;;;5057748;28;20049;-94
2023/01/13 00:40:55;;;;;;;1.98;1.83;;;;;;;;;;5050237;28;20042;-93
2023/01/13 00:43:23;;;;;;;2.30;2.00;;;;;;;;;;5039607;28;20092;-93
2023/01/13 00:45:51;;;;;;;2.38;2.25;;;;;;;;;;5057230;28;20050;-95
2023/01/13 00:48:18;;;;;;;1.92;1.80;;;;;;;;;;5059637;28;20037;-94
2023/01/13 00:50:44;;;;;;;2.47;2.13;;;;;;;;;;5058977;28;20061;-94
2023/01/13 00:53:11;;;;;;;3.22;3.03;;;;;;;;;;5059724;28;20053;-94
2023/01/13 00:55:39;;;;;;;1.85;1.75;;;;;;;;;;5058342;28;20045;-94
2023/01/13 00:58:06;;;;;;;2.08;1.23;;;;;;;;;;5056824;28;20072;-94
2023/01/13 01:00:33;;;;;;;2.00;1.90;;;;;;;;;;5056107;28;20049;-94
2023/01/13 01:02:59;;;;;;;2.50;1.73;;;;;;;;;;5053930;28;20059;-93
2023/01/13 01:05:26;;;;;;;1.25;1.15;;;;;;;;;;5036817;28;20053;-93
2023/01/13 01:07:52;;;;;;;2.95;2.83;;;;;;;;;;5034687;28;20045;-93
2023/01/13 01:10:19;;;;;;;1.48;1.45;;;;;;;;;;5036205;28;20053;-93
2023/01/13 01:12:47;;;;;;;2.10;2.00;;;;;;;;;;5036278;28;20049;-94
2023/01/13 01:15:13;;;;;;;1.25;1.00;;;;;;;;;;5036985;28;20107;-94
2023/01/13 01:17:40;;;;;;;3.38;2.80;;;;;;;;;;5038079;28;20045;-95
2023/01/13 01:20:07;;;;;;;0.50;0.40;;;;;;;;;;5037357;28;20111;-94
2023/01/13 01:22:33;;;;;;;3.67;2.17;;;;;;;;;;5037419;28;20053;-93
2023/01/13 01:25:00;;;;;;;1.73;1.48;;;;;;;;;;5036050;28;20049;-94
2023/01/13 01:27:27;;;;;;;1.38;1.33;;;;;;;;;;5036178;28;20053;-96
2023/01/13 01:29:55;;;;;;;1.85;1.75;;;;;;;;;;5038807;28;20053;-96
2023/01/13 01:32:21;;;;;;;1.00;1.00;;;;;;;;;;5035890;28;20543;-96
2023/01/13 01:34:48;;;;;;;3.33;1.90;;;;;;;;;;5036376;28;20072;-95
2023/01/13 01:37:14;;;;;;;3.10;2.35;;;;;;;;;;5035250;28;20057;-95
2023/01/13 01:39:41;;;;;;;1.52;1.42;;;;;;;;;;5035327;28;20042;-96
2023/01/13 01:44:59;;;;;;;2.42;2.33;;;;;;;;;;5035301;28;20056;-95
2023/01/13 01:47:26;;;;;;;1.60;1.50;;;;;;;;;;5035295;28;20084;-96
2023/01/13 01:49:53;;;;;;;2.25;2.13;;;;;;;;;;5035345;28;20072;-96
2023/01/13 01:52:22;;;;;;;2.83;2.63;;;;;;;;;;5035346;28;20057;-96
2023/01/13 01:54:51;;;;;;;3.88;2.55;;;;;;;;;;5035544;28;20100;-95
2023/01/13 01:57:18;;;;;;;2.75;2.65;;;;;;;;;;5035040;28;20049;-96
2023/01/13 01:59:45;;;;;;;2.85;2.75;;;;;;;;;;5034758;28;20096;-95
2023/01/13 02:02:13;;;;;;;1.42;1.27;;;;;;;;;;5035085;28;20386;-96
2023/01/13 02:04:40;;;;;;;3.47;1.73;;;;;;;;;;5035428;28;20502;-96
2023/01/13 02:07:08;;;;;;;2.00;1.90;;;;;;;;;;5035262;28;20469;-96
2023/01/13 02:09:35;;;;;;;2.80;2.60;;;;;;;;;;5035058;28;20123;-96
2023/01/13 02:14:45;;;;;;;;;;;;;;;;;;5035345;28;20421;-93
2023/01/13 02:17:19;;;;;;;0.95;0.93;;;;;;;;;;5034213;28;20371;-94
2023/01/13 02:20:11;;;;;;;2.67;1.75;;;;;;;;;;5034071;28;20416;-94
2023/01/13 02:22:46;;;;;;;1.73;1.63;;;;;;;;;;5034126;28;20100;-93
2023/01/13 02:25:33;;;;;;;0.60;0.60;;;;;;;;;;5034426;28;20049;-94
2023/01/13 02:28:03;;;;;;;2.63;2.50;;;;;;;;;;5027105;28;20060;-93
2023/01/13 02:33:35;;;;;;;2.80;2.63;;;;;;;;;;5033991;28;20053;-93
2023/01/13 02:36:05;;;;;;;2.17;2.08;;;;;;;;;;5033762;28;20041;-93
2023/01/13 02:38:34;;;;;;;1.55;1.45;;;;;;;;;;5033734;28;20058;-93
2023/01/13 02:44:05;;;;;;;2.58;2.38;;;;;;;;;;5033843;28;20068;-93
2023/01/13 02:44:07;;;;;;;2.55;2.25;;;;;;;;;;5033649;28;20073;-94
2023/01/13 02:46:37;;;;;;;5.10;2.50;;;;;;;;;;5034034;28;20179;-94
2023/01/13 02:49:06;;;;;;;1.65;1.55;;;;;;;;;;5033831;28;20045;-95
2023/01/13 02:51:32;;;;;;;1.40;1.33;;;;;;;;;;5034058;28;20103;-95
2023/01/13 02:54:01;;;;;;;1.70;1.58;;;;;;;;;;5033933;28;20045;-95
2023/01/13 02:56:28;;;;;;;2.20;2.10;;;;;;;;;;5034138;28;20547;-95
2023/01/13 02:58:57;;;;;;;1.45;1.42;;;;;;;;;;5034193;28;20053;-96
2023/01/13 03:01:23;;;;;;;1.20;1.10;;;;;;;;;;5034869;28;20068;-95
2023/01/13 03:03:51;;;;;;;1.50;1.50;;;;;;;;;;5035086;28;20220;-96
2023/01/13 03:06:28;;;;;;;1.90;1.80;;;;;;;;;;5034515;28;20053;-96
2023/01/13 03:08:59;;;;;;;1.40;1.40;;;;;;;;;;5034230;28;20045;-95
2023/01/13 03:11:30;;;;;;;0.77;0.77;;;;;;;;;;5034014;28;20042;-95
2023/01/13 03:14:01;;;;;;;2.17;2.08;;;;;;;;;;5033896;28;20057;-95
2023/01/13 03:16:33;;;;;;;1.83;1.77;;;;;;;;;;5034084;28;20100;-94
2023/01/13 03:19:07;;;;;;;1.15;1.05;;;;;;;;;;5033858;28;20453;-95
2023/01/13 03:21:38;;;;;;;1.40;1.40;;;;;;;;;;5033781;28;20045;-93
2023/01/13 03:24:09;;;;;;;2.15;2.03;;;;;;;;;;5033598;28;20045;-93
2023/01/13 03:26:38;;;;;;;1.08;1.08;;;;;;;;;;5033301;28;20091;-94
2023/01/13 03:29:08;;;;;;;1.45;1.35;;;;;;;;;;5033182;28;20175;-93
2023/01/13 03:31:41;;;;;;;1.10;1.10;;;;;;;;;;5035864;28;20041;-94
2023/01/13 03:34:11;;;;;;;0.75;0.75;;;;;;;;;;5038163;28;20053;-93
2023/01/13 03:36:38;;;;;;;3.35;3.05;;;;;;;;;;5037488;28;20045;-93
2023/01/13 03:39:08;;;;;;;1.92;1.83;;;;;;;;;;5037679;28;20456;-92
2023/01/13 03:41:36;;;;;;;2.67;1.60;;;;;;;;;;5037290;28;20045;-93
2023/01/13 03:44:22;;;;;;;1.98;1.88;;;;;;;;;;5037303;28;20049;-93
2023/01/13 03:46:53;;;;;;;1.75;1.60;;;;;;;;;;5039667;28;20115;-95
2023/01/13 03:49:22;;;;;;;2.03;1.88;;;;;;;;;;5039819;28;20046;-95
2023/01/13 03:51:52;;;;;;;4.85;4.65;;;;;;;;;;5020780;28;20416;-95
2023/01/13 03:54:19;;;;;;;0.93;0.93;;;;;;;;;;5038311;28;20493;-94
2023/01/13 03:56:47;;;;;;;2.50;2.40;;;;;;;;;;5037118;28;20099;-94
2023/01/13 03:59:17;;;;;;;2.13;2.03;;;;;;;;;;5037828;28;20053;-96
2023/01/13 04:01:47;;;;;;;1.70;1.60;;;;;;;;;;5038025;28;20119;-96
2023/01/13 04:04:16;;;;;;;1.40;1.30;;;;;;;;;;5038997;28;20140;-96
2023/01/13 04:06:48;;;;;;;1.70;1.27;;;;;;;;;;5039453;28;20099;-96
2023/01/13 04:09:19;;;;;;;1.33;1.30;;;;;;;;;;5038193;28;20041;-95
2023/01/13 04:11:49;;;;;;;0.90;0.90;;;;;;;;;;5037079;28;20111;-94
2023/01/13 04:14:16;;;;;;;1.52;1.25;;;;;;;;;;5038806;28;20045;-93
2023/01/13 04:16:42;;;;;;;2.08;1.98;;;;;;;;;;5036690;28;20099;-92
2023/01/13 04:19:09;;;;;;;2.35;1.88;;;;;;;;;;5036692;28;20049;-92
2023/01/13 04:21:35;;;;;;;1.30;1.25;;;;;;;;;;5036484;28;20052;-92
2023/01/13 04:24:04;;;;;;;2.30;2.20;;;;;;;;;;5036772;28;20099;-92
2023/01/13 04:26:30;;;;;;;2.58;2.47;;;;;;;;;;5036645;28;20112;-92
2023/01/13 04:28:57;;;;;;;1.38;1.38;;;;;;;;;;5036208;28;20049;-93
2023/01/13 04:31:23;;;;;;;1.35;1.25;;;;;;;;;;5036203;28;20049;-93
2023/01/13 04:33:50;;;;;;;2.25;2.08;;;;;;;;;;5036298;28;20108;-94
2023/01/13 04:36:18;;;;;;;1.20;1.10;;;;;;;;;;5036966;28;20061;-93
2023/01/13 04:38:45;;;;;;;1.27;1.17;;;;;;;;;;5036736;28;20041;-93
2023/01/13 04:41:12;;;;;;;5.45;1.88;;;;;;;;;;5035876;28;20068;-92
2023/01/13 04:43:39;;;;;;;1.90;1.35;;;;;;;;;;5036360;28;20045;-92
2023/01/13 04:46:06;;;;;;;2.75;1.42;;;;;;;;;;5036263;28;20448;-93
2023/01/13 04:48:32;;;;;;;1.85;1.75;;;;;;;;;;5036123;28;20049;-94
2023/01/13 04:50:59;;;;;;;1.88;1.77;;;;;;;;;;5036677;28;20107;-95
2023/01/13 04:53:25;;;;;;;0.65;0.65;;;;;;;;;;5036420;28;20041;-95
2023/01/13 04:55:52;;;;;;;1.67;1.58;;;;;;;;;;5036658;28;20053;-95
2023/01/13 04:58:20;;;;;;;1.27;1.27;;;;;;;;;;5036345;28;20064;-94
2023/01/13 05:00:47;;;;;;;1.50;1.45;;;;;;;;;;5036232;28;20045;-95
2023/01/13 05:03:13;;;;;;;1.17;1.10;;;;;;;;;;5036229;28;20049;-94
2023/01/13 05:05:40;;;;;;;1.25;1.20;;;;;;;;;;5036008;28;20061;-93
2023/01/13 05:08:10;;;;;;;2.22;2.03;;;;;;;;;;5036970;28;20045;-92
2023/01/13 05:10:37;;;;;;;2.05;1.95;;;;;;;;;;5035615;28;20045;-92
2023/01/13 05:18:44;;;;;;;1.52;1.42;;;;;;;;;;4974676;28;20058;-94
2023/01/13 05:25:20;;;;;;;2.88;1.70;;;;;;;;;;4974989;28;20047;-93
2023/01/13 05:26:41;;;;;;;0.98;0.98;;;;;;;;;;4974648;28;20062;-93
2023/01/13 05:29:08;;;;;;;2.08;1.98;;;;;;;;;;4974826;28;20142;-92
2023/01/13 05:31:36;;;;;;;3.13;2.95;;;;;;;;;;4974529;28;20463;-93
2023/01/13 05:34:02;;;;;;;2.65;2.45;;;;;;;;;;4974635;28;20110;-92
2023/01/13 05:36:29;;;;;;;2.22;2.13;;;;;;;;;;4974788;28;20046;-92
2023/01/13 05:38:55;;;;;;;1.75;1.10;;;;;;;;;;4974316;28;20062;-93
2023/01/13 05:44:06;;;;;;;1.98;1.88;;;;;;;;;;4974505;28;20054;-92
2023/01/13 05:46:32;;;;;;;2.00;1.85;;;;;;;;;;4974284;28;20495;-92
2023/01/13 05:49:00;;;;;;;2.95;2.75;;;;;;;;;;4974186;28;20113;-92
2023/01/13 05:51:27;;;;;;;2.28;2.08;;;;;;;;;;4974394;28;20047;-92
2023/01/13 05:53:54;;;;;;;4.35;2.97;;;;;;;;;;5028723;28;20042;-92
2023/01/13 05:56:20;;;;;;;1.77;1.67;;;;;;;;;;5035819;28;20053;-94
2023/01/13 05:58:47;;;;;;;4.75;3.60;;;;;;;;;;5039292;28;20045;-93
2023/01/13 06:01:13;;;;;;;1.80;1.65;;;;;;;;;;5046959;28;20068;-96
2023/01/13 06:03:40;;;;;;;4.00;3.70;;;;;;;;;;5051165;28;20072;-96
2023/01/13 06:06:08;;;;;;;3.00;2.28;;;;;;;;;;5050395;28;20100;-95
2023/01/13 06:08:35;;;;;;;2.45;2.20;;;;;;;;;;5045831;28;20041;-96
2023/01/13 06:11:01;;;;;;;3.15;2.95;;;;;;;;;;5043447;28;20051;-95
2023/01/13 06:13:29;;;;;;;2.25;2.10;;;;;;;;;;5035844;28;20045;-94
2023/01/13 06:15:57;;;;;;;4.03;3.83;;;;;;;;;;5035095;28;20076;-95
2023/01/13 06:18:24;;;;;;;3.08;2.88;;;;;;;;;;5034734;28;20405;-93
2023/01/13 06:20:50;;;;;;;3.50;3.05;;;;;;;;;;5034332;28;20045;-92
2023/01/13 06:23:18;;;;;;;3.38;2.90;;;;;;;;;;5034470;28;20103;-93
2023/01/13 06:25:47;;;;;;;3.28;2.42;;;;;;;;;;5034916;28;20132;-94
2023/01/13 06:28:14;;;;;;;1.65;1.55;;;;;;;;;;5034521;28;20454;-93
2023/01/13 06:30:43;;;;;;;3.10;2.90;;;;;;;;;;5035626;28;20053;-93
2023/01/13 06:33:12;;;;;;;1.17;1.08;;;;;;;;;;5033901;28;20049;-92
2023/01/13 06:35:41;;;;;;;1.50;1.40;;;;;;;;;;5033924;28;20485;-93
2023/01/13 06:38:09;;;;;;;4.22;2.60;;;;;;;;;;5033738;28;20056;-93
2023/01/13 06:40:37;;;;;;;1.58;1.48;;;;;;;;;;5033945;28;20053;-94
2023/01/13 06:43:14;;;;;;;1.95;1.85;;;;;;;;;;5034189;28;20045;-94
2023/01/13 06:45:42;;;;;;;4.07;3.20;;;;;;;;;;5034478;28;20041;-94
2023/01/13 06:48:08;;;;;;;3.75;3.55;;;;;;;;;;5033732;28;20095;-93
2023/01/13 06:50:35;;;;;;;4.32;2.03;;;;;;;;;;5033641;28;20111;-93
2023/01/13 06:53:01;;;;;;;1.80;1.70;;;;;;;;;;5033835;28;20054;-93
2023/01/13 06:55:28;;;;;;;3.22;2.95;;;;;;;;;;5033850;28;20115;-93
2023/01/13 08:16:12;;;;;;;3.58;3.28;;;;;;;;;;6223635;22;20036;-92
2023/01/13 08:18:39;;;;;;;1.38;1.27;;;;;;;;;;4998459;28;20050;-92
2023/01/13 08:21:07;;;;;;;3.58;3.17;;;;;;;;;;4997344;28;20054;-92
2023/01/13 08:23:34;;;;;;;1.65;1.55;;;;;;;;;;4997180;28;20054;-92
2023/01/13 08:26:01;;;;;;;3.80;3.00;;;;;;;;;;4997008;28;20435;-92
2023/01/13 08:28:27;;;;;;;2.78;2.67;;;;;;;;;;4997267;28;20141;-92
2023/01/13 08:30:54;;;;;;;2.33;2.13;;;;;;;;;;4998511;28;20046;-92
2023/01/13 08:33:22;;;;;;;2.90;2.80;;;;;;;;;;4997197;28;20097;-93
2023/01/13 08:35:51;;;;;;;4.88;4.47;;;;;;;;;;4997192;28;20137;-94
2023/01/13 08:38:18;;;;;;;4.05;3.75;;;;;;;;;;4997029;28;20455;-94
2023/01/13 08:40:44;;;;;;;2.65;2.42;;;;;;;;;;4997078;28;20101;-94
2023/01/13 08:43:11;;;;;;;1.90;1.80;;;;;;;;;;4996567;28;20104;-93
2023/01/13 08:45:37;;;;;;;2.95;2.85;;;;;;;;;;4996942;28;20101;-93
2023/01/13 08:48:04;;;;;;;3.80;3.55;;;;;;;;;;4996815;28;20475;-93
2023/01/13 08:50:32;;;;;;;1.98;1.88;;;;;;;;;;4996899;28;20097;-93
2023/01/13 08:53:00;;;;;;;2.05;1.95;;;;;;;;;;4996803;28;20100;-94
2023/01/13 08:55:26;;;;;;;2.40;2.30;;;;;;;;;;4996498;28;20054;-93
2023/01/13 08:57:53;;;;;;;1.83;1.73;;;;;;;;;;4996719;28;20104;-93
2023/01/13 09:00:19;;;;;;;1.88;1.77;;;;;;;;;;4996633;28;20100;-93
2023/01/13 09:02:46;;;;;;;3.25;3.05;;;;;;;;;;4996326;28;20104;-92
2023/01/13 09:05:13;;;;;;;3.10;2.92;;;;;;;;;;4996270;28;20057;-92
2023/01/13 09:07:40;;;;;;;3.40;2.08;;;;;;;;;;4996242;28;20050;-92
2023/01/13 09:10:08;;;;;;;1.25;1.15;;;;;;;;;;4996530;28;20121;-93
2023/01/13 09:15:19;;;;;;;2.75;2.63;;;;;;;;;;4996251;28;20078;-92
2023/01/13 09:17:46;;;;;;;2.42;2.30;;;;;;;;;;4996169;28;20117;-91
2023/01/13 09:20:13;;;;;;;2.47;1.60;;;;;;;;;;4996567;28;20418;-92
2023/01/13 09:22:41;;;;;;;5.40;5.10;;;;;;;;;;4996426;28;20414;-92
2023/01/13 09:25:08;;;;;;;3.08;2.30;;;;;;;;;;4996002;28;20042;-92
2023/01/13 09:27:35;;;;;;;2.88;1.42;;;;;;;;;;4995359;28;20498;-91
2023/01/13 09:30:02;;;;;;;1.70;1.63;;;;;;;;;;4995665;28;20217;-92
2023/01/13 09:32:28;;;;;;;2.22;2.00;;;;;;;;;;4995963;28;20085;-92
2023/01/13 09:35:00;;;;;;;3.70;2.65;;;;;;;;;;4995891;28;20108;-92
2023/01/13 09:37:27;;;;;;;1.60;1.50;;;;;;;;;;4995899;28;20703;-92
2023/01/13 09:39:55;;;;;;;8.23;4.35;;;;;;;;;;4996061;28;20145;-92
2023/01/13 09:45:14;;;;;;;3.35;3.05;;;;;;;;;;4995722;28;20088;-92
2023/01/13 09:47:44;;;;;;;2.40;2.25;;;;;;;;;;4995723;28;20450;-92
2023/01/13 09:50:18;;;;;;;3.75;2.88;;;;;;;;;;4995472;28;20105;-92
2023/01/13 09:52:46;;;;;;;2.95;2.42;;;;;;;;;;4995634;28;20065;-92
2023/01/13 09:55:16;;;;;;;2.80;2.60;;;;;;;;;;4995651;28;20046;-92
2023/01/13 09:57:43;;;;;;;4.65;2.92;;;;;;;;;;4995731;28;20050;-92
2023/01/13 10:00:11;;;;;;;4.53;4.22;;;;;;;;;;4995331;28;20046;-92
2023/01/13 10:02:46;;;;;;;2.42;2.33;;;;;;;;;;4995217;28;20117;-92
2023/01/13 10:05:15;;;;;;;10.40;3.53;;;;;;;;;;4995603;28;20101;-92
2023/01/13 10:07:49;;;;;;;4.25;2.90;;;;;;;;;;4995503;28;20101;-92
2023/01/13 10:10:18;;;;;;;4.10;3.90;;;;;;;;;;4995387;28;20058;-91
2023/01/13 10:15:29;;;;;;;2.05;1.95;;;;;;;;;;4995174;28;20517;-91
2023/01/13 10:17:58;;;;;;;3.78;2.72;;;;;;;;;;4994919;28;20058;-90
2023/01/13 10:20:29;;;;;;;2.78;2.58;;;;;;;;;;4994791;28;20097;-90
2023/01/13 10:23:01;;;;;;;1.90;1.80;;;;;;;;;;4994973;28;20109;-90
2023/01/13 10:25:34;;;;;;;3.90;3.70;;;;;;;;;;4994654;28;20046;-91
2023/01/13 10:28:03;;;;;;;2.67;2.50;;;;;;;;;;4994879;28;20053;-91
2023/01/13 10:30:34;;;;;;;4.57;4.30;;;;;;;;;;4994622;28;20498;-91
2023/01/13 10:33:02;;;;;;;3.55;3.35;;;;;;;;;;4994456;28;20050;-90
2023/01/13 10:35:43;;;;;;;1.98;1.77;;;;;;;;;;4994780;28;20450;-92
2023/01/13 10:38:15;;;;;;;4.35;4.05;;;;;;;;;;4981700;28;20050;-91
2023/01/13 10:40:48;;;;;;;2.03;1.92;;;;;;;;;;4993734;28;20054;-90
2023/01/13 10:43:14;;;;;;;3.38;3.22;;;;;;;;;;4994682;28;20050;-91
2023/01/13 10:45:41;;;;;;;2.58;2.38;;;;;;;;;;4994593;28;20053;-90
2023/01/13 10:48:12;;;;;;;3.13;1.88;;;;;;;;;;4994573;28;20101;-91
2023/01/13 10:50:40;;;;;;;2.47;2.38;;;;;;;;;;4994181;28;20054;-91
2023/01/13 10:53:16;;;;;;;8.30;3.80;;;;;;;;;;4994427;28;20050;-91
2023/01/13 10:55:42;;;;;;;4.70;4.50;;;;;;;;;;4994259;28;20046;-91
2023/01/13 10:58:16;;;;;;;2.50;2.30;;;;;;;;;;4994404;28;20380;-91
2023/01/13 11:00:42;;;;;;;3.65;3.45;;;;;;;;;;4994258;28;20109;-91
2023/01/13 11:03:13;;;;;;;3.33;3.13;;;;;;;;;;4994448;28;20050;-90
2023/01/13 11:05:40;;;;;;;;;;;;;;;;;;4994528;28;20097;-91
2023/01/13 11:08:15;;;;;;;1.38;1.35;;;;;;;;;;4994348;28;19933;-91
2023/01/13 11:10:44;;;;;;;1.92;1.83;;;;;;;;;;4994287;28;20403;-91
2023/01/13 11:13:13;;;;;;;2.97;2.88;;;;;;;;;;4993905;28;20062;-90
2023/01/13 11:15:44;;;;;;;2.83;2.72;;;;;;;;;;4994227;28;20050;-91
2023/01/13 11:18:18;;;;;;;2.70;2.60;;;;;;;;;;4993694;28;20050;-90
2023/01/13 11:20:46;;;;;;;1.67;1.58;;;;;;;;;;4974812;28;20050;-91
2023/01/13 11:23:15;;;;;;;2.13;2.03;;;;;;;;;;4974243;28;20054;-90
2023/01/13 11:25:44;;;;;;;2.60;2.33;;;;;;;;;;4974581;28;20057;-90
2023/01/13 11:28:18;;;;;;;3.92;3.72;;;;;;;;;;4974258;28;20431;-91
2023/01/13 11:30:49;;;;;;;2.70;1.42;;;;;;;;;;4974644;28;20450;-91
2023/01/13 11:33:30;;;;;;;4.32;3.92;;;;;;;;;;4975204;28;20525;-91
2023/01/13 11:36:05;;;;;;;4.65;2.20;;;;;;;;;;4976410;28;20058;-91
2023/01/13 11:38:33;;;;;;;2.40;1.90;;;;;;;;;;4974567;28;20458;-91
2023/01/13 11:41:04;;;;;;;2.55;2.45;;;;;;;;;;4974533;28;20121;-91
2023/01/13 11:43:33;;;;;;;3.50;2.75;;;;;;;;;;4974404;28;20127;-91
2023/01/13 11:46:01;;;;;;;2.55;2.35;;;;;;;;;;4974145;28;20541;-91
2023/01/13 11:48:30;;;;;;;2.70;2.50;;;;;;;;;;4974521;28;20135;-91
2023/01/13 11:50:59;;;;;;;11.57;2.40;;;;;;;;;;4974432;28;20098;-91
2023/01/13 11:53:34;;;;;;;3.15;3.00;;;;;;;;;;4978110;28;20046;-91
2023/01/13 11:56:07;;;;;;;1.25;1.10;;;;;;;;;;4978285;28;20050;-91
2023/01/13 11:58:50;;;;;;;2.42;2.22;;;;;;;;;;4978331;28;20109;-91
2023/01/13 12:01:34;;;;;;;1.63;1.52;;;;;;;;;;4978215;28;20058;-91
2023/01/13 12:04:06;;;;;;;3.60;3.42;;;;;;;;;;4978174;28;20047;-91
2023/01/13 12:06:34;;;;;;;2.20;2.10;;;;;;;;;;4978440;28;20109;-92
2023/01/13 12:09:14;;;;;;;2.08;1.98;;;;;;;;;;4978308;28;20046;-92
2023/01/13 12:14:31;;;;;;;4.50;4.30;;;;;;;;;;4976631;28;20054;-91
2023/01/13 12:17:00;;;;;;;3.97;3.78;;;;;;;;;;4978062;28;20117;-91
2023/01/13 12:19:27;;;;;;;2.38;2.28;;;;;;;;;;4977650;28;20077;-91
2023/01/13 12:22:01;;;;;;;2.55;2.40;;;;;;;;;;4977836;28;20075;-91
2023/01/13 12:24:29;;;;;;;3.13;2.45;;;;;;;;;;4977775;28;20047;-92
2023/01/13 12:26:58;;;;;;;2.55;2.35;;;;;;;;;;4977718;28;20157;-92
2023/01/13 12:29:29;;;;;;;3.42;2.92;;;;;;;;;;4977431;28;20046;-92
2023/01/13 12:31:55;;;;;;;3.65;3.35;;;;;;;;;;4977715;28;20059;-92
2023/01/13 12:34:30;;;;;;;2.60;2.40;;;;;;;;;;4977211;28;20106;-91
2023/01/13 12:37:02;;;;;;;3.10;3.00;;;;;;;;;;4977687;28;20069;-91
2023/01/13 12:39:33;;;;;;;1.83;1.73;;;;;;;;;;4980145;28;20093;-92
2023/01/13 12:45:06;;;;;;;2.60;2.33;;;;;;;;;;4996698;28;20053;-92
2023/01/13 12:47:33;;;;;;;2.42;2.17;;;;;;;;;;4996864;28;20071;-92
2023/01/13 12:50:34;;;;;;;3.70;3.55;;;;;;;;;;4996816;28;20054;-91
2023/01/13 12:53:20;;;;;;;3.10;2.90;;;;;;;;;;4996779;28;20050;-92
2023/01/13 12:55:50;;;;;;;2.05;1.90;;;;;;;;;;4996417;28;20046;-92
2023/01/13 12:58:17;;;;;;;3.08;2.95;;;;;;;;;;4996591;28;20054;-92
2023/01/13 13:01:01;;;;;;;3.40;3.22;;;;;;;;;;4996554;28;20105;-92
2023/01/13 13:03:29;;;;;;;3.42;3.22;;;;;;;;;;4996467;28;20061;-91
2023/01/13 13:05:59;;;;;;;2.17;2.08;;;;;;;;;;4996677;28;20116;-92
2023/01/13 13:08:36;;;;;;;3.47;3.17;;;;;;;;;;4996516;28;20565;-91
2023/01/13 13:13:16;;;;;;;2.90;2.63;;;;;;;;;;4996241;28;20057;-91
2023/01/13 13:14:03;;;;;;;3.03;2.83;;;;;;;;;;4995818;28;20116;-91
2023/01/13 13:16:37;;;;;;;2.78;1.90;;;;;;;;;;4995916;28;20057;-92
2023/01/13 13:19:21;;;;;;;2.22;2.13;;;;;;;;;;4996292;28;20058;-92
2023/01/13 13:22:06;;;;;;;4.03;3.72;;;;;;;;;;4985935;28;20097;-91
2023/01/13 13:24:34;;;;;;;5.00;3.30;;;;;;;;;;4996321;28;20051;-92
2023/01/13 13:27:16;;;;;;;3.90;3.58;;;;;;;;;;4996180;28;20097;-91
2023/01/13 13:29:48;;;;;;;3.38;3.17;;;;;;;;;;4996093;28;20054;-91
2023/01/13 13:32:31;;;;;;;3.75;3.38;;;;;;;;;;4996039;28;20101;-91
2023/01/13 13:35:22;;;;;;;5.28;3.70;;;;;;;;;;4996005;28;20053;-91
2023/01/13 13:46:47;;;;;;;3.22;3.03;;;;;;;;;;4954864;29;20051;-92
2023/01/13 13:49:14;;;;;;;4.72;2.85;;;;;;;;;;4955483;29;20054;-90
2023/01/13 13:51:43;;;;;;;3.90;3.42;;;;;;;;;;4955062;29;20059;-91
2023/01/13 13:54:11;;;;;;;2.58;2.40;;;;;;;;;;4954554;29;20487;-91
2023/01/13 13:56:42;;;;;;;3.03;2.85;;;;;;;;;;4954685;29;20069;-91
2023/01/13 13:59:09;;;;;;;3.55;3.35;;;;;;;;;;4955142;29;20059;-91
2023/01/13 14:01:37;;;;;;;3.33;3.05;;;;;;;;;;4954683;29;20051;-91
2023/01/13 14:04:05;;;;;;;3.95;3.75;;;;;;;;;;4954541;29;20051;-91
2023/01/13 14:06:32;;;;;;;3.00;2.88;;;;;;;;;;4954406;29;20054;-90
2023/01/13 14:08:59;;;;;;;3.70;3.50;;;;;;;;;;4954757;29;20062;-91
2023/01/13 14:11:26;;;;;;;3.58;3.38;;;;;;;;;;4955079;29;20047;-91
2023/01/13 14:14:02;;;;;;;3.10;2.80;;;;;;;;;;4954856;28;20051;-91
2023/01/13 14:16:29;;;;;;;4.43;4.13;;;;;;;;;;4960259;28;20081;-91
2023/01/13 14:18:56;;;;;;;3.10;2.90;;;;;;;;;;4996154;28;20046;-91
2023/01/13 14:21:24;;;;;;;3.05;2.67;;;;;;;;;;4995985;28;20058;-92
2023/01/13 14:23:52;;;;;;;3.30;2.45;;;;;;;;;;4999106;28;20054;-91
2023/01/13 14:26:18;;;;;;;3.38;2.72;;;;;;;;;;5004007;28;20069;-91
2023/01/13 14:28:45;;;;;;;2.80;2.58;;;;;;;;;;5007767;28;20042;-92
2023/01/13 14:31:13;;;;;;;3.30;3.10;;;;;;;;;;5006206;28;20046;-92
2023/01/13 14:33:41;;;;;;;4.43;4.22;;;;;;;;;;5006977;28;20065;-92
2023/01/13 14:36:15;;;;;;;5.80;5.45;;;;;;;;;;5005380;28;20042;-92
2023/01/13 14:38:42;;;;;;;6.95;6.57;;;;;;;;;;5004537;28;20414;-92
2023/01/13 14:41:16;;;;;;;3.05;2.60;;;;;;;;;;5003906;28;20081;-92
2023/01/13 14:43:43;;;;;;;4.05;3.75;;;;;;;;;;4999771;28;20129;-90
2023/01/13 14:46:10;;;;;;;2.97;2.78;;;;;;;;;;4995084;28;20101;-89
2023/01/13 14:48:39;;;;;;;3.33;3.05;;;;;;;;;;4995024;28;20047;-89
2023/01/13 14:51:09;;;;;;;2.42;1.83;;;;;;;;;;4995412;28;20050;-89
2023/01/13 14:53:38;;;;;;;4.75;4.10;;;;;;;;;;4995424;28;20494;-90
2023/01/13 14:56:19;;;;;;;3.17;3.05;;;;;;;;;;4996702;28;20054;-89
2023/01/13 14:58:48;;;;;;;3.88;3.63;;;;;;;;;;4983309;28;20069;-92
2023/01/13 15:01:28;;;;;;;2.97;2.78;;;;;;;;;;4994423;28;20415;-92
2023/01/13 15:04:15;;;;;;;6.60;6.32;;;;;;;;;;4994245;28;20478;-92
2023/01/13 15:06:45;;;;;;;2.65;2.45;;;;;;;;;;4994524;28;20050;-93
2023/01/13 15:09:12;;;;;;;4.65;4.43;;;;;;;;;;4994259;28;20097;-93
2023/01/13 15:11:39;;;;;;;2.50;2.40;;;;;;;;;;4994219;28;20061;-92
2023/01/13 15:14:09;;;;;;;2.92;2.72;;;;;;;;;;4994044;28;20046;-90
2023/01/13 15:16:36;;;;;;;5.63;5.22;;;;;;;;;;4993966;28;20054;-91
2023/01/13 15:19:04;;;;;;;4.72;4.38;;;;;;;;;;4993897;28;20137;-91
2023/01/13 15:21:30;;;;;;;4.05;3.75;;;;;;;;;;4994178;28;20117;-92
2023/01/13 15:23:57;;;;;;;3.78;3.58;;;;;;;;;;4994217;28;20047;-91
2023/01/13 15:26:25;;;;;;;4.90;4.55;;;;;;;;;;4992847;28;20525;-90
2023/01/13 15:28:52;;;;;;;3.05;2.85;;;;;;;;;;4994131;28;20133;-91
2023/01/13 15:31:19;;;;;;;5.53;5.15;;;;;;;;;;4993998;28;20051;-94
2023/01/13 15:33:45;;;;;;;4.40;4.10;;;;;;;;;;4994025;28;20109;-92
2023/01/13 15:36:20;;;;;;;6.45;4.18;;;;;;;;;;4993633;28;20053;-92
2023/01/13 15:38:46;;;;;;;5.57;5.20;;;;;;;;;;4993829;28;20100;-91
2023/01/13 15:41:13;;;;;;;4.07;3.72;;;;;;;;;;4993771;28;20564;-92
2023/01/13 15:46:38;;;;;;;3.90;3.63;;;;;;;;;;4993720;28;20109;-92
2023/01/13 15:49:08;;;;;;;2.97;2.75;;;;;;;;;;4993790;28;20438;-90
2023/01/13 15:51:37;;;;;;;5.13;4.72;;;;;;;;;;4993721;28;20057;-90
2023/01/13 15:54:04;;;;;;;2.42;2.33;;;;;;;;;;4993467;28;20050;-90
2023/01/13 15:56:31;;;;;;;4.15;3.85;;;;;;;;;;4979602;28;20050;-90
2023/01/13 15:58:57;;;;;;;2.25;2.13;;;;;;;;;;4974382;28;20105;-91
2023/01/13 16:01:24;;;;;;;4.82;4.03;;;;;;;;;;4966715;28;20495;-89
2023/01/13 16:03:51;;;;;;;4.93;3.35;;;;;;;;;;4985639;28;20077;-91
2023/01/13 16:06:18;;;;;;;2.47;2.28;;;;;;;;;;4993724;28;20142;-91
2023/01/13 16:08:46;;;;;;;3.33;3.10;;;;;;;;;;4993463;28;20105;-91
2023/01/13 16:11:13;;;;;;;2.38;2.17;;;;;;;;;;4993416;28;20089;-91
2023/01/13 16:13:39;;;;;;;2.90;2.78;;;;;;;;;;4993755;28;20060;-91
2023/01/13 16:16:13;;;;;;;3.92;3.63;;;;;;;;;;4993256;28;20051;-91
2023/01/13 16:18:40;;;;;;;4.72;4.20;;;;;;;;;;4993628;28;20046;-91
2023/01/13 16:21:08;;;;;;;5.63;5.30;;;;;;;;;;4993136;28;20100;-91
2023/01/13 16:23:35;;;;;;;4.80;4.47;;;;;;;;;;4993365;28;20105;-91
2023/01/13 16:26:04;;;;;;;4.53;4.13;;;;;;;;;;4993287;28;20498;-91
2023/01/13 16:28:30;;;;;;;3.33;3.08;;;;;;;;;;4993548;28;20104;-91
2023/01/13 16:30:57;;;;;;;4.70;3.35;;;;;;;;;;4984224;28;20051;-91
2023/01/13 16:33:23;;;;;;;4.88;4.47;;;;;;;;;;4973744;28;20047;-90
2023/01/13 16:35:50;;;;;;;5.57;5.03;;;;;;;;;;4979274;28;20050;-91
2023/01/13 16:38:18;;;;;;;5.30;5.00;;;;;;;;;;4995412;28;20046;-91
2023/01/13 16:40:45;;;;;;;9.43;8.93;;;;;;;;;;4996905;28;20406;-92
2023/01/13 16:43:13;;;;;;;7.88;6.78;;;;;;;;;;4996489;28;20057;-89
2023/01/13 16:45:40;;;;;;;4.90;4.50;;;;;;;;;;4996449;28;20058;-91
2023/01/13 16:48:09;;;;;;;7.80;7.40;;;;;;;;;;4996815;28;20050;-91
2023/01/13 16:50:38;;;;;;;10.88;6.20;;;;;;;;;;4996439;28;20053;-91
2023/01/13 16:53:05;;;;;;;6.30;5.72;;;;;;;;;;4996842;28;20108;-91
2023/01/13 16:55:31;;;;;;;7.28;6.57;;;;;;;;;;4996514;28;20043;-91
2023/01/13 16:57:58;;;;;;;7.63;4.82;;;;;;;;;;4996188;28;20100;-91
2023/01/13 17:00:26;;;;;;;5.75;5.25;;;;;;;;;;4996201;28;20050;-90